Météo Nord-Pas-de-Calais   La météo au plus près de chez vous

Station météorologique

Observations météo à Ourouer (18175)

18175003 221 m Dernier relevé à 17:30
23.2°C
Humidité 76 % Vent 27.7 km/h

Journée consultée

Lundi 31 Août 2026

Synthèse de la journée

Périodes de référence en UTC

Température maximale

23.6°C

à 15:00

06h 06h

Température minimale

15.3°C

à 04:48

18h 18h

Rafale maximale

47 km/h

à 16:24

00h 00h

Précipitations

0.2 mm

Cumul quotidien

06h 06h

Graphiques de la journée

Heure locale Réduire

Données détaillées

Relevés météo

Pas de 6 minutes Afficher les relevés infra-horaires
Relevés météo détaillés à Ourouer pour le Lundi 31 Août 2026
Heure Température °C Point de rosée °C Humidité % Vent moyen (raf.), km/h Précipitations mm
17:30 23.2 °C 13.9 °C 56 % 25 km/h (36 km/h) 0 mm0 mm
17:24 23.2 °C 13.9 °C 56 % 28 km/h (37 km/h) 0 mm0 mm
17:18 23.1 °C 14.1 °C 57 % 27 km/h (37 km/h) 0 mm0 mm
17:12 23.1 °C 14.6 °C 59 % 24 km/h (38 km/h) 0 mm0 mm
17:06 22.7 °C 14.3 °C 59 % 24 km/h (38 km/h) 0 mm0 mm
17:00 22.5 °C 14.6 °C 61 % 23 km/h (35 km/h) 0 mm0 mm
16:54 22.2 °C 14.8 °C 63 % 17 km/h (30 km/h) 0 mm0 mm
16:48 21.5 °C 15.1 °C 67 % 15 km/h (26 km/h) 0 mm0 mm
16:42 20.9 °C 15 °C 69 % 17 km/h (30 km/h) 0 mm0 mm
16:36 19.8 °C 15.4 °C 76 % 21 km/h (32 km/h) 0 mm0 mm
16:30 19.5 °C 15.2 °C 76 % 28 km/h (45 km/h) 0 mm0 mm
16:24 19.9 °C 14.7 °C 72 % 33 km/h (47 km/h) 0 mm0 mm
16:18 21.1 °C 14.7 °C 67 % 26 km/h (43 km/h) 0 mm0 mm
16:12 21.9 °C 14.3 °C 62 % 23 km/h (33 km/h) 0 mm0 mm
16:06 21.9 °C 14.5 °C 63 % 23 km/h (33 km/h) 0 mm0 mm
16:00 21.5 °C 14.4 °C 64 % 22 km/h (35 km/h) 0 mm0 mm
15:54 22 °C 14.4 °C 62 % 23 km/h (35 km/h) 0 mm0 mm
15:48 22.2 °C 14.1 °C 60 % 24 km/h (37 km/h) 0 mm0 mm
15:42 21.9 °C 13.8 °C 60 % 21 km/h (33 km/h) 0 mm0 mm
15:36 21.9 °C 13.8 °C 60 % 27 km/h (44 km/h) 0 mm0 mm
15:30 21.7 °C 13.3 °C 59 % 31 km/h (44 km/h) 0 mm0 mm
15:24 22 °C 13.6 °C 59 % 31 km/h (41 km/h) 0 mm0 mm
15:18 22.4 °C 14 °C 59 % 30 km/h (45 km/h) 0 mm0 mm
15:12 22.7 °C 13.7 °C 57 % 26 km/h (45 km/h) 0 mm0 mm
15:06 22.9 °C 13.9 °C 57 % 23 km/h (33 km/h) 0 mm0 mm
15:00 23.3 °C 14.3 °C 57 % 24 km/h (33 km/h) 0 mm0 mm
14:54 23.3 °C 14.6 °C 58 % 24 km/h (35 km/h) 0 mm0 mm
14:48 23.1 °C 14.6 °C 59 % 26 km/h (35 km/h) 0 mm0 mm
14:42 22.8 °C 13.8 °C 57 % 29 km/h (41 km/h) 0 mm0 mm
14:36 22.9 °C 13.4 °C 55 % 29 km/h (41 km/h) 0 mm0 mm
14:30 23.4 °C 14.1 °C 56 % 25 km/h (36 km/h) 0 mm0 mm
14:24 23.4 °C 14.9 °C 59 % 20 km/h (33 km/h) 0 mm0 mm
14:18 22.8 °C 14.6 °C 60 % 23 km/h (40 km/h) 0 mm0 mm
14:12 22.9 °C 14.5 °C 59 % 23 km/h (40 km/h) 0 mm0 mm
14:06 22.9 °C 16 °C 65 % 21 km/h (31 km/h) 0 mm0 mm
14:00 22.6 °C 15.2 °C 63 % 21 km/h (31 km/h) 0 mm0 mm
13:54 22.6 °C 15.2 °C 63 % 22 km/h (33 km/h) 0 mm0 mm
13:48 22.1 °C 15.4 °C 66 % 24 km/h (32 km/h) 0 mm0 mm
13:42 21.5 °C 14.9 °C 66 % 23 km/h (33 km/h) 0 mm0 mm
13:36 21.1 °C 15 °C 68 % 23 km/h (33 km/h) 0 mm0 mm
13:30 21.7 °C 15.1 °C 66 % 23 km/h (33 km/h) 0 mm0 mm
13:24 22 °C 15.4 °C 66 % 22 km/h (32 km/h) 0 mm0 mm
13:18 21.9 °C 15 °C 65 % 24 km/h (37 km/h) 0 mm0 mm
13:12 20.9 °C 14.5 °C 67 % 23 km/h (36 km/h) 0 mm0 mm
13:06 20.9 °C 14.8 °C 68 % 22 km/h (36 km/h) 0 mm0 mm
13:00 21.2 °C 16.2 °C 73 % 19 km/h (31 km/h) 0 mm0 mm
12:54 20.3 °C 15.7 °C 75 % 24 km/h (35 km/h) 0 mm0 mm
12:48 20 °C 14.6 °C 71 % 25 km/h (35 km/h) 0 mm0 mm
12:42 20.4 °C 14.3 °C 68 % 22 km/h (32 km/h) 0 mm0 mm
12:36 21.1 °C 15.2 °C 69 % 22 km/h (34 km/h) 0 mm0 mm
12:30 21.2 °C 14.6 °C 66 % 22 km/h (34 km/h) 0 mm0 mm
12:24 21.1 °C 15 °C 68 % 23 km/h (34 km/h) 0 mm0 mm
12:18 20.8 °C 14.9 °C 69 % 23 km/h (33 km/h) 0 mm0 mm
12:12 20.4 °C 14.7 °C 70 % 20 km/h (30 km/h) 0 mm0 mm
12:06 20.2 °C 14.8 °C 71 % 21 km/h (28 km/h) 0 mm0 mm
12:00 20.4 °C 14.7 °C 70 % 22 km/h (33 km/h) 0 mm0 mm
11:54 20.4 °C 15.2 °C 72 % 22 km/h (33 km/h) 0 mm0 mm
11:48 20.3 °C 14.9 °C 71 % 21 km/h (34 km/h) 0 mm0 mm
11:42 20 °C 14.4 °C 70 % 24 km/h (33 km/h) 0 mm0 mm
11:36 20.3 °C 14.9 °C 71 % 22 km/h (32 km/h) 0 mm0 mm
11:30 20.3 °C 15.1 °C 72 % 20 km/h (30 km/h) 0 mm0 mm
11:24 20.2 °C 15.2 °C 73 % 21 km/h (34 km/h) 0 mm0 mm
11:18 20.2 °C 15.2 °C 73 % 22 km/h (34 km/h) 0 mm0 mm
11:12 20.2 °C 15.4 °C 74 % 23 km/h (31 km/h) 0 mm0 mm
11:06 19.7 °C 15.3 °C 76 % 22 km/h (30 km/h) 0 mm0 mm
11:00 19.4 °C 15.3 °C 77 % 22 km/h (30 km/h) 0 mm0 mm
10:54 19.5 °C 15.2 °C 76 % 25 km/h (39 km/h) 0 mm0 mm
10:48 19.5 °C 14.9 °C 75 % 27 km/h (39 km/h) 0 mm0 mm
10:42 19.7 °C 14.9 °C 74 % 27 km/h (38 km/h) 0 mm0 mm
10:36 19.4 °C 15.1 °C 76 % 25 km/h (36 km/h) 0 mm0 mm
10:30 19.2 °C 15.1 °C 77 % 24 km/h (34 km/h) 0 mm0 mm
10:24 18.7 °C 15.2 °C 80 % 23 km/h (34 km/h) 0 mm0 mm
10:18 18.8 °C 15.3 °C 80 % 23 km/h (34 km/h) 0 mm0 mm
10:12 18.9 °C 15.6 °C 81 % 24 km/h (37 km/h) 0 mm0 mm
10:06 18.8 °C 15.8 °C 83 % 24 km/h (37 km/h) 0 mm0 mm
10:00 18.6 °C 15.7 °C 83 % 25 km/h (37 km/h) 0 mm0 mm
09:54 18.6 °C 15.8 °C 84 % 23 km/h (34 km/h) 0 mm0 mm
09:48 18.5 °C 15.7 °C 84 % 22 km/h (30 km/h) 0 mm0 mm
09:42 18.3 °C 15.5 °C 84 % 21 km/h (30 km/h) 0 mm0 mm
09:36 18.2 °C 15.6 °C 85 % 19 km/h (29 km/h) 0 mm0 mm
09:30 18.1 °C 15.7 °C 86 % 20 km/h (28 km/h) 0 mm0 mm
09:24 18 °C 15.8 °C 87 % 19 km/h (29 km/h) 0 mm0 mm
09:18 17.9 °C 16.1 °C 89 % 17 km/h (29 km/h) 0 mm0 mm
09:12 17.6 °C 15.8 °C 89 % 15 km/h (25 km/h) 0 mm0 mm
09:06 17.3 °C 16 °C 92 % 12 km/h (23 km/h) 0 mm0 mm
09:00 17 °C 16 °C 94 % 10 km/h (18 km/h) 0 mm0.2 mm
08:54 16.5 °C 15.4 °C 93 % 11 km/h (18 km/h) 0 mm0 mm
08:48 16.4 °C 15.4 °C 94 % 12 km/h (18 km/h) 0 mm0 mm
08:42 16.2 °C 15.4 °C 95 % 11 km/h (18 km/h) 0 mm0 mm
08:36 16 °C 15.5 °C 97 % 11 km/h (16 km/h) 0 mm0 mm
08:30 15.8 °C 15.3 °C 97 % 12 km/h (20 km/h) 0 mm0 mm
08:24 15.6 °C 15.1 °C 97 % 11 km/h (22 km/h) 0 mm0 mm
08:18 15.5 °C 15 °C 97 % 12 km/h (22 km/h) 0 mm0 mm
08:12 15.5 °C 15 °C 97 % 13 km/h (22 km/h) 0 mm0 mm
08:06 15.5 °C 14.9 °C 96 % 18 km/h (28 km/h) 0.2 mm0 mm
08:00 15.6 °C 14.6 °C 94 % 19 km/h (30 km/h) 0 mm0 mm
07:54 15.9 °C 14.4 °C 91 % 17 km/h (30 km/h) 0 mm0 mm
07:48 16.2 °C 14 °C 87 % 14 km/h (27 km/h) 0 mm0 mm
07:42 16 °C 14.2 °C 89 % 13 km/h (21 km/h) 0 mm0 mm
07:36 15.9 °C 14.1 °C 89 % 14 km/h (19 km/h) 0 mm0 mm
07:30 16 °C 14 °C 88 % 14 km/h (22 km/h) 0 mm0 mm
07:24 15.9 °C 14.1 °C 89 % 15 km/h (25 km/h) 0 mm0 mm
07:18 15.9 °C 14.1 °C 89 % 16 km/h (25 km/h) 0 mm0 mm
07:12 15.9 °C 14.1 °C 89 % 15 km/h (24 km/h) 0 mm0 mm
07:06 15.9 °C 14.3 °C 90 % 14 km/h (24 km/h) 0 mm0 mm
07:00 15.9 °C 14.3 °C 90 % 14 km/h (23 km/h) 0 mm0 mm
06:54 15.8 °C 14.3 °C 91 % 14 km/h (22 km/h) 0 mm0 mm
06:48 15.8 °C 14.2 °C 90 % 13 km/h (19 km/h) 0 mm0 mm
06:42 15.8 °C 14.2 °C 90 % 14 km/h (23 km/h) 0 mm0 mm
06:36 15.8 °C 14.2 °C 90 % 13 km/h (23 km/h) 0 mm0 mm
06:30 15.6 °C 14.1 °C 91 % 11 km/h (21 km/h) 0 mm0 mm
06:24 15.5 °C 14.2 °C 92 % 10 km/h (18 km/h) 0 mm0 mm
06:18 15.4 °C 14.1 °C 92 % 11 km/h (17 km/h) 0 mm0 mm
06:12 15.4 °C 14.1 °C 92 % 10 km/h (17 km/h) 0 mm0 mm
06:06 15.4 °C 14.1 °C 92 % 10 km/h (17 km/h) 0 mm0 mm
06:00 15.5 °C 14 °C 91 % 12 km/h (24 km/h) 0 mm0 mm
05:54 15.5 °C 14 °C 91 % 13 km/h (24 km/h) 0 mm0 mm
05:48 15.5 °C 14.2 °C 92 % 12 km/h (24 km/h) 0 mm0 mm
05:42 15.4 °C 14.1 °C 92 % 12 km/h (17 km/h) 0 mm0 mm
05:36 15.4 °C 14.1 °C 92 % 12 km/h (17 km/h) 0 mm0 mm
05:30 15.3 °C 14.2 °C 93 % 11 km/h (22 km/h) 0 mm0 mm
05:24 15.3 °C 14.2 °C 93 % 11 km/h (22 km/h) 0 mm0 mm
05:18 15.3 °C 14.2 °C 93 % 12 km/h (17 km/h) 0 mm0 mm
05:12 15.3 °C 14 °C 92 % 12 km/h (20 km/h) 0 mm0 mm
05:06 15.4 °C 14.1 °C 92 % 12 km/h (20 km/h) 0 mm0 mm
05:00 15.4 °C 14.3 °C 93 % 11 km/h (20 km/h) 0 mm0 mm
04:54 15.4 °C 14.3 °C 93 % 11 km/h (19 km/h) 0 mm0 mm
04:48 15.3 °C 14.2 °C 93 % 11 km/h (20 km/h) 0 mm0 mm
04:42 15.4 °C 14.3 °C 93 % 11 km/h (20 km/h) 0 mm0 mm
04:36 15.5 °C 14.4 °C 93 % 10 km/h (17 km/h) 0 mm0 mm
04:30 15.5 °C 14.4 °C 93 % 11 km/h (18 km/h) 0 mm0 mm
04:24 15.6 °C 14.3 °C 92 % 12 km/h (18 km/h) 0 mm0 mm
04:18 15.6 °C 14.5 °C 93 % 13 km/h (22 km/h) 0 mm0 mm
04:12 15.7 °C 14.4 °C 92 % 13 km/h (19 km/h) 0 mm0 mm
04:06 15.8 °C 14.5 °C 92 % 13 km/h (20 km/h) 0 mm0 mm
04:00 16 °C 14.7 °C 92 % 14 km/h (20 km/h) 0 mm0 mm
03:54 16 °C 14.7 °C 92 % 13 km/h (19 km/h) 0 mm0 mm
03:48 16 °C 14.7 °C 92 % 13 km/h (19 km/h) 0 mm0 mm
03:42 16 °C 14.9 °C 93 % 12 km/h (19 km/h) 0 mm0 mm
03:36 16.1 °C 14.8 °C 92 % 12 km/h (19 km/h) 0 mm0 mm
03:30 16 °C 14.9 °C 93 % 12 km/h (17 km/h) 0 mm0 mm
03:24 16 °C 14.9 °C 93 % 12 km/h (17 km/h) 0 mm0 mm
03:18 15.9 °C 14.9 °C 94 % 12 km/h (18 km/h) 0 mm0 mm
03:12 15.8 °C 14.7 °C 93 % 12 km/h (19 km/h) 0 mm0 mm
03:06 15.7 °C 14.7 °C 94 % 12 km/h (18 km/h) 0 mm0 mm
03:00 15.7 °C 14.7 °C 94 % 12 km/h (19 km/h) 0 mm0 mm
02:54 15.8 °C 14.7 °C 93 % 12 km/h (19 km/h) 0 mm0 mm
02:48 15.8 °C 14.7 °C 93 % 12 km/h (19 km/h) 0 mm0 mm
02:42 15.9 °C 14.8 °C 93 % 13 km/h (19 km/h) 0 mm0 mm
02:36 15.9 °C 14.8 °C 93 % 12 km/h (22 km/h) 0 mm0 mm
02:30 16 °C 14.9 °C 93 % 13 km/h (22 km/h) 0 mm0 mm
02:24 16.1 °C 15 °C 93 % 13 km/h (19 km/h) 0 mm0 mm
02:18 16.2 °C 15.1 °C 93 % 12 km/h (19 km/h) 0 mm0 mm
02:12 16.2 °C 15.1 °C 93 % 12 km/h (22 km/h) 0 mm0 mm
02:06 16.3 °C 15.2 °C 93 % 14 km/h (22 km/h) 0 mm0 mm
02:00 16.3 °C 15.2 °C 93 % 14 km/h (23 km/h) 0 mm0.2 mm
01:54 16.3 °C 15.2 °C 93 % 14 km/h (20 km/h) 0.2 mm0 mm
01:48 16.4 °C 15.3 °C 93 % 14 km/h (20 km/h) 0 mm0 mm
01:42 16.4 °C 15.3 °C 93 % 14 km/h (22 km/h) 0 mm0 mm
01:36 16.4 °C 15.3 °C 93 % 13 km/h (20 km/h) 0 mm0 mm
01:30 16.5 °C 15.4 °C 93 % 14 km/h (22 km/h) 0 mm0 mm
01:24 16.5 °C 15.4 °C 93 % 13 km/h (21 km/h) 0 mm0 mm
01:18 16.5 °C 15.5 °C 94 % 14 km/h (22 km/h) 0 mm0 mm
01:12 16.5 °C 15.5 °C 94 % 15 km/h (26 km/h) 0 mm0 mm
01:06 16.6 °C 15.6 °C 94 % 17 km/h (26 km/h) 0 mm0 mm
01:00 16.6 °C 15.6 °C 94 % 17 km/h (24 km/h) 0 mm0 mm
00:54 16.7 °C 15.7 °C 94 % 17 km/h (24 km/h) 0 mm0 mm
00:48 16.7 °C 15.6 °C 93 % 17 km/h (28 km/h) 0 mm0 mm
00:42 16.8 °C 15.7 °C 93 % 18 km/h (28 km/h) 0 mm0 mm
00:36 16.8 °C 15.7 °C 93 % 17 km/h (25 km/h) 0 mm0 mm
00:30 16.9 °C 15.6 °C 92 % 18 km/h (27 km/h) 0 mm0 mm
00:24 17 °C 15.7 °C 92 % 19 km/h (27 km/h) 0 mm0 mm
00:18 17 °C 15.7 °C 92 % 19 km/h (28 km/h) 0 mm0 mm
00:12 17.1 °C 15.6 °C 91 % 19 km/h (28 km/h) 0 mm0 mm
00:06 17.1 °C 15.6 °C 91 % 18 km/h (26 km/h) 0 mm0 mm
00:00 17.2 °C 15.7 °C 91 % 16 km/h (26 km/h) 0 mm0 mm

Données via Météo-France

Relevés météo à Ourouer

Cette page rassemble les observations de la station de Ourouer : température, humidité, vent, précipitations et pression atmosphérique. Les graphiques facilitent le suivi de la journée, tandis que le tableau donne accès aux mesures horaires et infra-horaires disponibles.

Pour replacer ces mesures dans leur contexte, consultez la climatologie de Ourouer ainsi que ses normales et records. Retrouvez aussi la carte des observations météo en temps réel.